Time;durP1;ratioP1;P1;durP2;ratioP2;P2;SDS_P1;SDS_P2;PMS_P1;PMS_P2;Temp;Humidity;BMP_temperature;BMP_pressure;BME280_temperature;BME280_humidity;BME280_pressure;Samples;Min_cycle;Max_cycle;Signal;HPM_P1;HPM_P2
2023/07/11 00:00:57;;;;;;;3.50;3.20;;;;;;;16.56;70.84;99518.90;105802;1253;60541;-74
2023/07/11 00:03:25;;;;;;;4.40;3.00;;;;;;;16.52;71.18;99521.17;105754;1253;60602;-72
2023/07/11 00:06:02;;;;;;;4.10;3.30;;;;;;;16.57;71.39;99520.58;105514;1256;72321;-73
2023/07/11 00:08:30;;;;;;;6.00;3.50;;;;;;;16.60;71.59;99520.83;105723;1253;70656;-73
2023/07/11 00:10:57;;;;;;;4.50;3.40;;;;;;;16.56;71.75;99523.23;105850;1259;74549;-73
2023/07/11 00:13:25;;;;;;;3.40;3.10;;;;;;;16.52;72.01;99523.31;106515;1254;60750;-73
2023/07/11 00:15:57;;;;;;;4.10;3.50;;;;;;;16.51;72.37;99522.45;107078;1258;59210;-73
2023/07/11 00:18:24;;;;;;;3.40;3.10;;;;;;;16.46;72.57;99522.02;105864;1258;73922;-73
2023/07/11 00:20:52;;;;;;;4.20;3.50;;;;;;;16.38;72.89;99524.23;105734;1255;70314;-75
2023/07/11 00:23:19;;;;;;;4.00;3.30;;;;;;;16.30;73.31;99523.31;105650;1259;71515;-73
2023/07/11 00:25:46;;;;;;;4.90;3.50;;;;;;;16.33;73.43;99522.23;105666;1260;62768;-72
2023/07/11 00:28:14;;;;;;;5.50;3.30;;;;;;;16.39;73.72;99523.41;105471;1259;520643;-72
2023/07/11 00:33:19;;;;;;;4.60;4.10;;;;;;;16.34;74.16;99521.41;102617;1298;603927;-75
2023/07/11 00:35:49;;;;;;;4.70;4.00;;;;;;;16.30;74.70;99519.19;105041;1267;59372;-77
2023/07/11 00:38:16;;;;;;;4.90;3.80;;;;;;;16.29;75.01;99517.50;105637;1267;61376;-73
2023/07/11 00:40:44;;;;;;;7.50;4.50;;;;;;;16.29;75.31;99520.23;105973;1254;72050;-72
2023/07/11 00:43:13;;;;;;;5.00;4.10;;;;;;;16.36;75.32;99520.53;106806;1257;70247;-73
2023/07/11 00:45:49;;;;;;;5.50;3.90;;;;;;;16.44;75.37;99520.39;106632;1260;211222;-72
2023/07/11 00:48:17;;;;;;;5.40;4.10;;;;;;;16.45;75.50;99520.05;106154;1255;60392;-72
2023/07/11 00:50:44;;;;;;;5.50;4.00;;;;;;;16.43;75.71;99521.75;106041;1251;60329;-73
2023/07/11 00:53:11;;;;;;;7.50;4.10;;;;;;;16.40;75.85;99519.54;105784;1257;71993;-71
2023/07/11 00:55:41;;;;;;;4.90;4.00;;;;;;;16.37;75.99;99516.03;105806;1251;70400;-72
2023/07/11 00:58:08;;;;;;;4.60;3.90;;;;;;;16.35;76.14;99518.77;106185;1251;72869;-71
2023/07/11 01:00:37;;;;;;;5.60;4.00;;;;;;;16.42;75.93;99517.96;105678;1256;60503;-73
2023/07/11 01:03:04;;;;;;;4.40;4.00;;;;;;;16.45;75.85;99517.48;106018;1251;59691;-73
2023/07/11 01:05:33;;;;;;;4.80;3.60;;;;;;;16.42;75.79;99516.31;105997;1257;73062;-74
2023/07/11 01:07:59;;;;;;;5.30;3.90;;;;;;;16.39;75.76;99518.38;105971;1258;70194;-74
2023/07/11 01:10:26;;;;;;;4.40;3.70;;;;;;;16.36;75.66;99519.86;106026;1251;72648;-74
2023/07/11 01:12:58;;;;;;;5.20;4.10;;;;;;;16.32;75.57;99517.53;109118;1251;59538;-73
2023/07/11 01:15:25;;;;;;;5.00;4.00;;;;;;;16.28;75.46;99516.48;108525;1251;59665;-73
2023/07/11 01:17:52;;;;;;;5.00;3.90;;;;;;;16.33;75.26;99512.38;107174;1251;71657;-75
2023/07/11 01:20:22;;;;;;;4.20;3.70;;;;;;;16.34;75.16;99515.10;106143;1251;70508;-75
2023/07/11 01:22:51;;;;;;;5.30;3.90;;;;;;;16.29;75.29;99515.81;105946;1257;72696;-72
2023/07/11 01:25:18;;;;;;;4.50;4.00;;;;;;;16.23;75.38;99513.11;105929;1254;59585;-74
2023/07/11 01:27:46;;;;;;;4.70;4.20;;;;;;;16.16;75.50;99509.01;106014;1251;59742;-73
2023/07/11 01:30:15;;;;;;;6.70;4.60;;;;;;;16.09;75.65;99510.51;106071;1255;72067;-75
2023/07/11 01:32:43;;;;;;;5.30;4.10;;;;;;;16.04;75.80;99510.98;106034;1256;68822;-74
2023/07/11 01:35:10;;;;;;;8.30;4.20;;;;;;;16.07;75.80;99508.08;106019;1254;72441;-76
2023/07/11 01:37:37;;;;;;;5.70;4.20;;;;;;;16.11;75.83;99510.79;105941;1254;60174;-75
2023/07/11 01:40:05;;;;;;;5.20;3.70;;;;;;;16.05;75.90;99507.83;106058;1256;60483;-76
2023/07/11 01:42:32;;;;;;;5.00;4.40;;;;;;;15.95;76.16;99506.61;106670;1253;71965;-76
2023/07/11 01:44:59;;;;;;;5.60;4.20;;;;;;;15.87;76.39;99508.73;106994;1254;70100;-76
2023/07/11 01:47:25;;;;;;;7.40;5.40;;;;;;;15.80;76.64;99506.52;105998;1254;72665;-74
2023/07/11 01:49:52;;;;;;;5.40;4.80;;;;;;;15.85;76.79;99505.48;106074;1256;62167;-76
2023/07/11 01:52:21;;;;;;;8.10;5.30;;;;;;;15.90;76.91;99501.76;106110;1256;60006;-76
2023/07/11 01:54:48;;;;;;;5.20;4.60;;;;;;;15.89;76.99;99502.83;106159;1255;72967;-76
2023/07/11 01:57:15;;;;;;;5.80;4.80;;;;;;;15.87;77.17;99500.41;106213;1254;70323;-75
2023/07/11 01:59:42;;;;;;;7.60;5.30;;;;;;;15.83;77.25;99500.91;106166;1257;72649;-76
2023/07/11 02:02:10;;;;;;;5.80;4.80;;;;;;;15.81;77.50;99500.02;106326;1254;61791;-77
2023/07/11 02:04:38;;;;;;;6.00;4.60;;;;;;;15.86;77.42;99494.42;106028;1252;60186;-77
2023/07/11 02:07:05;;;;;;;6.70;4.90;;;;;;;15.94;77.57;99494.60;105702;1252;73162;-75
2023/07/11 02:09:34;;;;;;;6.60;4.70;;;;;;;15.90;77.57;99497.27;105852;1257;70204;-75
2023/07/11 02:12:01;;;;;;;7.80;4.60;;;;;;;15.85;77.60;99497.27;106580;1254;72436;-74
2023/07/11 02:14:28;;;;;;;6.80;4.90;;;;;;;15.79;77.99;99499.46;107194;1254;60275;-72
2023/07/11 02:16:55;;;;;;;6.80;4.60;;;;;;;15.76;78.32;99501.21;107523;1253;60291;-74
2023/07/11 02:19:23;;;;;;;5.60;4.90;;;;;;;15.82;78.29;99504.61;107183;1253;72949;-72
2023/07/11 02:21:51;;;;;;;5.60;4.30;;;;;;;15.89;78.22;99504.45;106313;1254;70465;-73
2023/07/11 02:24:19;;;;;;;6.70;4.80;;;;;;;15.89;78.47;99507.41;105687;1254;72472;-73
2023/07/11 02:26:48;;;;;;;4.60;4.20;;;;;;;15.88;78.54;99509.27;105978;1252;60440;-75
2023/07/11 02:29:15;;;;;;;5.20;4.50;;;;;;;15.83;78.52;99505.94;105944;1252;59656;-75
2023/07/11 02:31:42;;;;;;;6.90;4.10;;;;;;;15.77;78.65;99506.52;105947;1254;72994;-74
2023/07/11 02:34:09;;;;;;;6.80;4.80;;;;;;;15.81;78.61;99508.61;105895;1253;70332;-74
2023/07/11 02:36:37;;;;;;;6.40;3.90;;;;;;;15.85;78.78;99506.91;106014;1254;72651;-73
2023/07/11 02:39:04;;;;;;;5.00;4.30;;;;;;;15.83;78.85;99507.61;106178;1252;60407;-74
2023/07/11 02:41:32;;;;;;;6.60;4.60;;;;;;;15.78;79.09;99507.79;106643;1256;59718;-74
2023/07/11 02:43:59;;;;;;;5.50;4.70;;;;;;;15.77;79.22;99506.64;107035;1253;71637;-74
2023/07/11 02:46:26;;;;;;;10.90;4.40;;;;;;;15.78;79.21;99500.46;107213;1254;68972;-75
2023/07/11 02:48:53;;;;;;;5.60;4.60;;;;;;;15.88;79.01;99502.66;105967;1254;72754;-76
2023/07/11 02:51:20;;;;;;;5.80;4.40;;;;;;;15.95;78.83;99502.62;105882;1254;59537;-75
2023/07/11 02:53:47;;;;;;;5.00;4.50;;;;;;;15.95;79.01;99501.02;106016;1252;61924;-75
2023/07/11 02:56:13;;;;;;;5.50;4.90;;;;;;;15.91;78.88;99499.61;106115;1256;73092;-73
2023/07/11 02:58:40;;;;;;;5.80;4.50;;;;;;;15.89;79.11;99503.86;106131;1254;70091;-75
2023/07/11 03:01:07;;;;;;;5.50;4.60;;;;;;;15.86;79.13;99501.27;105992;1254;71056;-73
2023/07/11 03:03:33;;;;;;;4.50;4.10;;;;;;;15.92;79.27;99497.52;105830;1253;62044;-75
2023/07/11 03:06:00;;;;;;;5.60;4.60;;;;;;;15.99;79.17;99497.78;105915;1254;59655;-74
2023/07/11 03:08:27;;;;;;;6.40;4.00;;;;;;;15.97;79.10;99497.30;105924;1254;73057;-72
2023/07/11 03:10:58;;;;;;;4.90;4.40;;;;;;;15.96;79.15;99498.71;105952;1254;70478;-72
2023/07/11 03:13:25;;;;;;;4.70;4.30;;;;;;;15.95;79.40;99501.75;107017;1253;71445;-73
2023/07/11 03:15:52;;;;;;;5.30;4.30;;;;;;;15.95;79.47;99503.11;107512;1254;60481;-75
2023/07/11 03:18:19;;;;;;;8.30;4.10;;;;;;;16.04;79.12;99503.46;106906;1252;60192;-77
2023/07/11 03:20:46;;;;;;;6.50;4.30;;;;;;;16.10;79.00;99507.33;107401;1252;71545;-74
2023/07/11 03:23:14;;;;;;;6.30;5.10;;;;;;;16.05;79.16;99505.27;106574;1254;68843;-73
2023/07/11 03:25:41;;;;;;;7.40;5.10;;;;;;;16.01;79.37;99506.72;106380;1254;72721;-74
2023/07/11 03:28:08;;;;;;;8.20;4.50;;;;;;;15.99;79.67;99505.61;105986;1253;60352;-73
2023/07/11 03:30:35;;;;;;;6.00;4.80;;;;;;;15.98;79.62;99507.02;106256;1254;60354;-73
2023/07/11 03:33:02;;;;;;;6.60;4.50;;;;;;;16.06;79.59;99505.36;106225;1256;73170;-74
2023/07/11 03:35:30;;;;;;;5.90;4.80;;;;;;;16.15;79.30;99503.64;106323;1254;70753;-74
2023/07/11 03:37:56;;;;;;;6.50;4.40;;;;;;;16.15;79.38;99505.04;106270;1254;73685;-75
2023/07/11 03:40:24;;;;;;;5.10;4.20;;;;;;;16.15;79.57;99500.06;106711;1253;59582;-76
2023/07/11 03:42:51;;;;;;;7.60;4.40;;;;;;;16.17;79.64;99498.48;108789;1254;59600;-74
2023/07/11 03:45:18;;;;;;;6.90;4.70;;;;;;;16.23;79.64;99499.12;109345;1253;71672;-75
2023/07/11 03:47:45;;;;;;;5.90;5.00;;;;;;;16.39;79.40;99500.96;106641;1254;68936;-75
2023/07/11 03:50:12;;;;;;;6.10;5.00;;;;;;;16.51;78.93;99495.39;106250;1257;72424;-75
2023/07/11 03:52:39;;;;;;;4.90;4.40;;;;;;;16.51;78.63;99495.77;107496;1252;60341;-76
2023/07/11 03:55:07;;;;;;;6.40;4.80;;;;;;;16.47;78.90;99489.46;107662;1252;60252;-73
2023/07/11 03:57:34;;;;;;;5.80;4.70;;;;;;;16.48;79.16;99482.16;106439;1254;72921;-75
2023/07/11 04:00:01;;;;;;;5.60;4.60;;;;;;;16.52;79.15;99477.73;106168;1253;70098;-75
2023/07/11 04:02:40;;;;;;;6.10;4.70;;;;;;;16.67;78.99;99475.68;107171;1256;72358;-75
2023/07/11 04:05:07;;;;;;;6.40;5.40;;;;;;;16.79;78.98;99478.02;106359;1253;60265;-76
2023/07/11 04:07:33;;;;;;;6.40;4.90;;;;;;;16.85;78.87;99483.45;106161;1254;60091;-75
2023/07/11 04:10:00;;;;;;;7.40;5.10;;;;;;;16.89;78.76;99486.23;106411;1254;73432;-74
2023/07/11 04:12:27;;;;;;;6.50;5.50;;;;;;;16.91;78.68;99488.96;109392;1254;69089;-72
2023/07/11 04:14:54;;;;;;;5.30;4.80;;;;;;;16.96;78.67;99496.93;108619;1252;70397;-75
2023/07/11 04:17:20;;;;;;;7.70;5.10;;;;;;;17.08;78.42;99494.59;108507;1253;57970;-75
2023/07/11 04:19:48;;;;;;;6.90;4.70;;;;;;;17.18;78.23;99500.17;107917;1256;60119;-75
2023/07/11 04:22:14;;;;;;;6.20;5.20;;;;;;;17.22;78.26;99502.55;107770;1253;73153;-74
2023/07/11 04:24:44;;;;;;;5.10;4.60;;;;;;;17.26;78.11;99509.01;107555;1253;69117;-75
2023/07/11 04:27:10;;;;;;;8.40;5.70;;;;;;;17.29;78.11;99514.11;107668;1253;71864;-75
2023/07/11 04:29:37;;;;;;;6.20;5.60;;;;;;;17.33;78.01;99514.97;107594;1253;61731;-77
2023/07/11 04:32:05;;;;;;;5.80;5.00;;;;;;;17.44;77.77;99512.99;107664;1253;60219;-76
2023/07/11 04:34:32;;;;;;;6.50;5.40;;;;;;;17.59;77.76;99511.92;107816;1254;73247;-75
2023/07/11 04:36:59;;;;;;;5.70;5.20;;;;;;;17.73;77.41;99516.60;107919;1253;69034;-79
2023/07/11 04:39:26;;;;;;;7.10;5.20;;;;;;;17.86;76.70;99515.27;108477;1254;71348;-78
2023/07/11 04:41:53;;;;;;;5.70;5.10;;;;;;;17.99;75.97;99514.95;108676;1254;60347;-75
2023/07/11 04:44:20;;;;;;;5.70;5.20;;;;;;;18.07;75.16;99513.23;109594;1253;59317;-76
2023/07/11 04:46:47;;;;;;;4.70;4.30;;;;;;;18.11;74.48;99513.20;109244;1252;58155;-75
2023/07/11 04:49:14;;;;;;;6.60;4.80;;;;;;;18.24;74.45;99510.66;108029;1254;68905;-76
2023/07/11 04:51:41;;;;;;;5.60;4.70;;;;;;;18.44;74.21;99507.73;108695;1253;71720;-77
2023/07/11 04:54:10;;;;;;;9.10;5.30;;;;;;;18.63;73.49;99507.77;108153;1254;60488;-76
2023/07/11 04:56:40;;;;;;;6.20;5.30;;;;;;;18.76;72.79;99507.56;109220;1252;58745;-77
2023/07/11 04:59:08;;;;;;;4.80;4.40;;;;;;;18.78;72.25;99505.84;108976;1253;73094;-75
2023/07/11 05:01:35;;;;;;;7.80;5.00;;;;;;;18.81;72.34;99502.09;109241;1252;69207;-74
2023/07/11 05:04:02;;;;;;;5.80;5.20;;;;;;;18.88;72.07;99500.30;109267;1253;71383;-76
2023/07/11 05:06:31;;;;;;;6.90;5.10;;;;;;;19.01;71.75;99500.25;109230;1254;59263;-77
2023/07/11 05:08:58;;;;;;;5.10;4.60;;;;;;;19.17;71.21;99498.31;109095;1252;60523;-74
2023/07/11 05:11:31;;;;;;;4.90;4.20;;;;;;;19.35;70.60;99499.86;109413;1253;72655;-75
2023/07/11 05:13:58;;;;;;;5.30;4.60;;;;;;;19.49;70.05;99496.36;109066;1252;69176;-71
2023/07/11 05:16:27;;;;;;;6.10;5.10;;;;;;;19.53;70.01;99493.73;107144;1253;71592;-74
2023/07/11 05:18:55;;;;;;;8.80;5.20;;;;;;;19.60;69.35;99493.89;106125;1253;60597;-72
2023/07/11 05:21:22;;;;;;;5.30;4.80;;;;;;;19.63;68.71;99495.67;105844;1257;60380;-72
2023/07/11 05:23:49;;;;;;;7.50;4.90;;;;;;;19.52;68.61;99492.98;106095;1254;74067;-73
2023/07/11 05:26:16;;;;;;;5.20;4.70;;;;;;;19.41;68.72;99493.55;106009;1254;60584;-72
2023/07/11 05:28:45;;;;;;;5.30;4.50;;;;;;;19.31;68.91;99493.71;106026;1254;72821;-73
2023/07/11 05:31:12;;;;;;;6.20;4.70;;;;;;;19.26;69.46;99489.98;106050;1253;60505;-76
2023/07/11 05:33:39;;;;;;;6.00;4.60;;;;;;;19.32;69.64;99489.92;106284;1254;60799;-72
2023/07/11 05:38:53;;;;;;;6.70;5.10;;;;;;;19.44;68.72;99486.95;106213;1253;70061;-74
2023/07/11 05:41:20;;;;;;;6.00;5.10;;;;;;;19.37;68.91;99485.52;108485;1252;72645;-75
2023/07/11 05:43:47;;;;;;;5.20;4.20;;;;;;;19.34;69.09;99485.02;108804;1254;59089;-75
2023/07/11 05:46:14;;;;;;;5.20;4.60;;;;;;;19.34;69.33;99485.83;107420;1252;60434;-73
2023/07/11 05:48:41;;;;;;;5.50;4.20;;;;;;;19.40;69.13;99487.77;106164;1256;72847;-76
2023/07/11 05:51:09;;;;;;;9.10;4.80;;;;;;;19.53;68.67;99486.82;106236;1254;60439;-83
2023/07/11 05:53:36;;;;;;;8.00;4.50;;;;;;;19.63;68.95;99485.06;106527;1256;71319;-82
2023/07/11 05:56:03;;;;;;;5.30;4.00;;;;;;;19.72;68.01;99484.98;106899;1253;60144;-82
2023/07/11 05:58:31;;;;;;;5.70;4.00;;;;;;;19.80;67.79;99480.85;106585;1259;60294;-81
2023/07/11 06:00:58;;;;;;;4.60;4.20;;;;;;;19.90;67.54;99477.40;107482;1256;72709;-79
2023/07/11 06:03:26;;;;;;;5.90;3.90;;;;;;;20.00;67.26;99475.09;106917;1254;70494;-84
2023/07/11 06:05:54;;;;;;;4.40;3.60;;;;;;;20.08;66.88;99471.38;106732;1254;71365;-83
2023/07/11 06:08:24;;;;;;;4.40;3.60;;;;;;;20.15;65.60;99475.14;107052;1256;60511;-79
2023/07/11 06:10:51;;;;;;;4.00;3.60;;;;;;;20.20;64.80;99474.80;109102;1252;60405;-81
2023/07/11 06:13:18;;;;;;;4.40;3.50;;;;;;;20.28;64.70;99476.59;109365;1252;72430;-83
2023/07/11 06:15:45;;;;;;;4.10;3.80;;;;;;;20.36;64.44;99474.98;109042;1253;68962;-83
2023/07/11 06:18:11;;;;;;;5.40;3.50;;;;;;;20.41;64.11;99471.25;107815;1252;71440;-84
2023/07/11 06:20:41;;;;;;;4.10;3.70;;;;;;;20.45;63.95;99471.27;108441;1254;60393;-81
2023/07/11 06:23:07;;;;;;;5.30;3.90;;;;;;;20.50;63.51;99468.83;107207;1253;60503;-81
2023/07/11 06:25:36;;;;;;;4.10;3.70;;;;;;;20.54;63.06;99467.89;108001;1252;73938;-82
2023/07/11 06:28:03;;;;;;;4.70;4.20;;;;;;;20.54;62.42;99469.40;107695;1254;68878;-83
2023/07/11 06:30:31;;;;;;;4.20;3.40;;;;;;;20.56;62.54;99464.59;107900;1253;72682;-84
2023/07/11 06:32:58;;;;;;;4.20;3.70;;;;;;;20.63;62.58;99465.59;107568;1252;60395;-83
2023/07/11 06:35:25;;;;;;;5.60;3.40;;;;;;;20.68;62.29;99465.70;107139;1254;59308;-85
2023/07/11 06:37:52;;;;;;;4.00;3.60;;;;;;;20.75;61.98;99466.41;106821;1253;73875;-82
2023/07/11 06:40:19;;;;;;;4.80;3.50;;;;;;;20.78;61.06;99468.90;108210;1252;69442;-84
2023/07/11 06:42:46;;;;;;;5.30;4.10;;;;;;;20.76;61.08;99471.95;109492;1252;71302;-84
2023/07/11 06:45:13;;;;;;;4.60;4.10;;;;;;;20.78;60.94;99465.58;109495;1253;60339;-84
2023/07/11 06:47:43;;;;;;;3.50;3.20;;;;;;;20.81;61.03;99468.70;107434;1258;60438;-83
2023/07/11 06:50:10;;;;;;;4.10;3.30;;;;;;;20.84;60.93;99466.05;106694;1254;72572;-85
2023/07/11 06:52:37;;;;;;;5.50;3.00;;;;;;;20.87;60.28;99471.57;106717;1256;70438;-86
2023/07/11 06:55:04;;;;;;;4.60;3.40;;;;;;;20.86;59.88;99473.36;106965;1254;72484;-85
2023/07/11 06:57:30;;;;;;;4.20;3.30;;;;;;;20.85;59.97;99470.65;107416;1252;60300;-85
2023/07/11 07:00:00;;;;;;;3.50;3.20;;;;;;;20.84;59.56;99469.83;108328;1254;60320;-83
2023/07/11 07:02:28;;;;;;;3.50;2.60;;;;;;;20.88;59.41;99465.42;108099;1253;74045;-84
2023/07/11 07:04:57;;;;;;;3.50;3.00;;;;;;;20.93;58.86;99460.11;108160;1254;68832;-85
2023/07/11 07:07:37;;;;;;;2.90;2.50;;;;;;;20.93;58.91;99461.35;107930;1253;73121;-82
2023/07/11 07:10:07;;;;;;;5.60;3.00;;;;;;;20.95;58.58;99460.25;108307;1254;60251;-86
2023/07/11 07:12:34;;;;;;;6.50;2.90;;;;;;;20.96;58.35;99461.34;109428;1252;59079;-86
2023/07/11 07:15:04;;;;;;;3.60;2.80;;;;;;;20.96;58.37;99460.05;109593;1252;72539;-83
2023/07/11 07:17:32;;;;;;;3.80;2.90;;;;;;;20.97;58.11;99460.39;108410;1254;69462;-85
2023/07/11 07:20:04;;;;;;;3.10;2.80;;;;;;;21.01;57.91;99458.73;107698;1254;71419;-85
2023/07/11 07:22:32;;;;;;;5.10;3.10;;;;;;;21.07;57.35;99458.14;107907;1257;60476;-84
2023/07/11 07:25:00;;;;;;;3.00;2.70;;;;;;;21.11;57.59;99459.23;107847;1254;60530;-84
2023/07/11 07:27:47;;;;;;;2.70;2.50;;;;;;;21.21;57.22;99461.14;109053;1254;72535;-84
2023/07/11 07:30:14;;;;;;;3.10;2.80;;;;;;;21.29;56.63;99458.66;108830;1254;69015;-85
2023/07/11 07:32:44;;;;;;;4.20;3.20;;;;;;;21.33;56.61;99457.80;108330;1254;71557;-83
2023/07/11 07:35:12;;;;;;;3.30;2.90;;;;;;;21.35;56.52;99453.91;109163;1253;60145;-85
2023/07/11 07:37:43;;;;;;;2.90;2.60;;;;;;;21.34;56.05;99455.62;108512;1254;59569;-85
2023/07/11 07:40:10;;;;;;;3.40;3.10;;;;;;;21.32;55.70;99455.48;108251;1254;72062;-87
2023/07/11 07:42:38;;;;;;;2.90;2.70;;;;;;;21.30;55.61;99453.88;109285;1254;69067;-85
2023/07/11 07:45:05;;;;;;;3.10;2.80;;;;;;;21.29;56.00;99457.86;109466;1254;71415;-83
2023/07/11 07:47:35;;;;;;;3.60;3.20;;;;;;;21.28;55.83;99457.09;109379;1253;58997;-86
2023/07/11 07:50:03;;;;;;;3.50;2.80;;;;;;;21.25;55.49;99449.20;108735;1253;60323;-86
2023/07/11 07:52:30;;;;;;;3.10;2.60;;;;;;;21.29;55.77;99453.48;108086;1253;72511;-85
2023/07/11 07:54:57;;;;;;;3.80;2.90;;;;;;;21.37;55.60;99455.02;107614;1254;68895;-86
2023/07/11 07:57:24;;;;;;;3.40;3.00;;;;;;;21.48;55.41;99449.05;107105;1259;71184;-87
2023/07/11 07:59:52;;;;;;;3.80;3.50;;;;;;;21.63;54.89;99451.28;106931;1254;60562;-85
2023/07/11 08:02:22;;;;;;;4.50;3.10;;;;;;;21.77;54.55;99446.66;107329;1254;60355;-86
2023/07/11 08:04:49;;;;;;;3.80;3.50;;;;;;;21.89;54.45;99449.38;107237;1254;73963;-84
2023/07/11 08:07:17;;;;;;;4.20;3.30;;;;;;;21.99;54.25;99450.27;106811;1254;70146;-86
2023/07/11 08:09:47;;;;;;;3.80;3.50;;;;;;;22.06;54.27;99452.77;106731;1254;71315;-85
2023/07/11 08:12:14;;;;;;;3.40;3.10;;;;;;;22.11;54.06;99453.02;106983;1254;60545;-83
2023/07/11 08:14:41;;;;;;;4.20;3.40;;;;;;;22.15;54.07;99447.77;107973;1254;60322;-84
2023/07/11 08:17:10;;;;;;;3.50;3.10;;;;;;;22.18;53.90;99451.33;109122;1254;72584;-83
2023/07/11 08:19:37;;;;;;;3.20;2.90;;;;;;;22.22;53.45;99450.83;108485;1257;69578;-83
2023/07/11 08:22:05;;;;;;;4.40;3.40;;;;;;;22.26;53.45;99455.50;106605;1254;72625;-84
2023/07/11 08:24:32;;;;;;;3.30;3.00;;;;;;;22.29;53.29;99456.47;106594;1254;60433;-83
2023/07/11 08:27:00;;;;;;;4.60;3.70;;;;;;;22.45;53.29;99453.23;106463;1253;62245;-83
2023/07/11 08:29:28;;;;;;;5.20;3.30;;;;;;;22.64;53.01;99445.75;106406;1254;72780;-83
2023/07/11 08:32:01;;;;;;;4.00;3.10;;;;;;;22.74;52.12;99444.78;106725;1254;70012;-84
2023/07/11 08:34:28;;;;;;;3.50;3.00;;;;;;;22.78;52.13;99445.69;106666;1254;71651;-84
2023/07/11 08:36:55;;;;;;;3.40;3.00;;;;;;;22.83;51.95;99445.35;106372;1254;60463;-83
2023/07/11 08:39:21;;;;;;;3.40;2.90;;;;;;;22.85;51.61;99448.25;106744;1254;60372;-82
2023/07/11 08:41:52;;;;;;;4.50;3.20;;;;;;;22.87;51.68;99447.88;108001;1257;72606;-84
2023/07/11 08:44:39;;;;;;;3.30;3.00;;;;;;;22.86;51.98;99448.58;107845;1253;70250;-86
2023/07/11 08:47:12;;;;;;;4.80;3.00;;;;;;;22.88;51.39;99448.05;109017;1254;72723;-86
2023/07/11 08:50:13;;;;;;;3.80;3.50;;;;;;;22.90;51.58;99449.21;108373;1254;61792;-85
2023/07/11 08:52:40;;;;;;;3.80;3.40;;;;;;;22.97;51.58;99447.98;106377;1254;60543;-82
2023/07/11 08:55:14;;;;;;;3.10;2.90;;;;;;;23.03;51.52;99441.48;105991;1254;72851;-83
2023/07/11 08:58:02;;;;;;;8.20;3.30;;;;;;;23.12;51.41;99438.48;106251;1254;70602;-80
2023/07/11 09:00:30;;;;;;;4.00;3.10;;;;;;;23.28;51.29;99438.48;106169;1254;73083;-82
2023/07/11 09:02:59;;;;;;;3.80;3.20;;;;;;;23.49;51.28;99441.32;108696;1254;59192;-80
2023/07/11 09:05:45;;;;;;;4.10;3.30;;;;;;;23.66;50.55;99439.00;109230;1253;60427;-81
2023/07/11 09:08:15;;;;;;;3.10;2.80;;;;;;;23.81;49.96;99438.45;108702;1257;72833;-80
2023/07/11 09:11:21;;;;;;;3.30;2.90;;;;;;;23.82;49.40;99438.41;106699;1254;71960;-82
2023/07/11 09:13:59;;;;;;;3.90;3.00;;;;;;;23.79;49.49;99436.06;107425;1254;72601;-82
2023/07/11 09:16:26;;;;;;;3.80;3.00;;;;;;;23.82;49.36;99439.98;109107;1254;59119;-81
2023/07/11 09:19:33;;;;;;;5.50;3.10;;;;;;;23.94;49.25;99439.77;109141;1254;60440;-80
2023/07/11 09:22:16;;;;;;;3.30;3.00;;;;;;;24.35;49.27;99438.33;106315;1260;73839;-82
2023/07/11 09:24:52;;;;;;;5.80;3.50;;;;;;;24.75;48.69;99435.67;106195;1258;70201;-84
2023/07/11 09:27:25;;;;;;;3.90;3.00;;;;;;;25.13;47.55;99431.10;106154;1257;72801;-82
2023/07/11 09:29:53;;;;;;;3.20;2.90;;;;;;;25.56;46.61;99428.70;106126;1258;60469;-82
2023/07/11 09:32:21;;;;;;;3.40;2.90;;;;;;;25.95;46.24;99429.38;106230;1254;60421;-79
2023/07/11 09:34:49;;;;;;;6.40;3.70;;;;;;;26.24;45.58;99427.97;106054;1255;76147;-82
2023/07/11 09:37:38;;;;;;;3.70;3.40;;;;;;;26.36;45.49;99431.89;105923;1259;69654;-80
2023/07/11 09:40:09;;;;;;;3.80;3.20;;;;;;;26.52;45.21;99428.74;107509;1253;70704;-82
2023/07/11 09:42:51;;;;;;;3.80;3.40;;;;;;;26.94;45.06;99423.65;107970;1254;59375;-82
2023/07/11 09:45:21;;;;;;;2.90;2.60;;;;;;;27.59;44.49;99417.08;109208;1254;60159;-83
2023/07/11 09:48:15;;;;;;;3.50;3.10;;;;;;;28.22;43.19;99413.27;109614;1253;72657;-81
2023/07/11 09:51:19;;;;;;;3.90;3.10;;;;;;;28.84;41.82;99412.85;108489;1253;69303;-82
2023/07/11 09:53:46;;;;;;;3.70;2.60;;;;;;;29.35;40.77;99413.73;107226;1254;72995;-78
2023/07/11 09:56:17;;;;;;;2.90;2.60;;;;;;;29.59;40.31;99414.56;107098;1254;60514;-80
2023/07/11 09:58:47;;;;;;;3.60;2.90;;;;;;;29.73;39.80;99416.34;106947;1254;60537;-81
2023/07/11 10:01:26;;;;;;;4.30;3.00;;;;;;;29.95;39.68;99419.41;106905;1259;74103;-81
2023/07/11 10:03:56;;;;;;;3.40;2.70;;;;;;;30.35;39.41;99415.20;106810;1254;68827;-77
2023/07/11 10:06:41;;;;;;;4.10;2.50;;;;;;;30.63;38.76;99407.46;106800;1254;72506;-77
2023/07/11 10:09:15;;;;;;;3.40;3.10;;;;;;;30.62;38.36;99412.04;106565;1254;60436;-78
2023/07/11 10:11:52;;;;;;;4.20;2.70;;;;;;;30.29;38.26;99413.21;106706;1255;60422;-79
2023/07/11 10:14:20;;;;;;;3.70;3.20;;;;;;;29.74;38.87;99418.65;108404;1253;74276;-76
2023/07/11 10:16:48;;;;;;;3.40;2.50;;;;;;;29.24;39.37;99425.64;109035;1254;68924;-79
2023/07/11 10:19:18;;;;;;;3.10;2.90;;;;;;;28.85;39.82;99427.27;107240;1254;71196;-81
2023/07/11 10:21:47;;;;;;;4.00;2.90;;;;;;;28.78;40.05;99424.70;106897;1255;60534;-75
2023/07/11 10:24:20;;;;;;;4.60;2.80;;;;;;;28.91;40.07;99415.87;106771;1254;60469;-75
2023/07/11 10:26:51;;;;;;;2.90;2.60;;;;;;;29.17;39.88;99416.82;107127;1254;73808;-77
2023/07/11 10:29:19;;;;;;;3.80;3.00;;;;;;;29.28;39.48;99414.17;106351;1259;68927;-76
2023/07/11 10:31:54;;;;;;;3.00;2.80;;;;;;;29.14;39.35;99413.36;105932;1261;72716;-79
2023/07/11 10:34:42;;;;;;;2.90;2.30;;;;;;;28.87;39.69;99412.27;106162;1258;60414;-75
2023/07/11 10:37:13;;;;;;;3.70;2.90;;;;;;;28.48;39.97;99414.52;106108;1254;60415;-76
2023/07/11 10:39:40;;;;;;;3.20;2.90;;;;;;;28.05;40.39;99415.79;106288;1257;73815;-77
2023/07/11 10:42:43;;;;;;;3.30;3.00;;;;;;;27.64;40.71;99420.09;107200;1258;69147;-77
2023/07/11 10:45:23;;;;;;;3.10;2.90;;;;;;;27.41;41.23;99418.25;109040;1255;71202;-77
2023/07/11 10:48:04;;;;;;;4.30;2.60;;;;;;;27.44;41.59;99417.64;108355;1254;59430;-78
2023/07/11 10:50:44;;;;;;;2.80;2.60;;;;;;;27.55;41.52;99416.33;106892;1254;60412;-79
2023/07/11 10:53:42;;;;;;;3.00;2.70;;;;;;;27.59;41.44;99419.89;106091;1254;73867;-76
2023/07/11 10:56:29;;;;;;;3.10;2.80;;;;;;;27.57;41.61;99418.21;106071;1259;68933;-76
2023/07/11 10:58:56;;;;;;;3.00;2.80;;;;;;;27.48;41.45;99421.45;106125;1254;72637;-77
2023/07/11 11:01:26;;;;;;;4.50;2.60;;;;;;;27.37;41.76;99424.46;106280;1254;60424;-76
2023/07/11 11:03:59;;;;;;;2.80;2.50;;;;;;;27.26;41.74;99423.02;106190;1254;60533;-76
2023/07/11 11:06:38;;;;;;;4.00;2.70;;;;;;;27.19;42.08;99423.56;106094;1258;73567;-78
2023/07/11 11:09:35;;;;;;;3.60;2.90;;;;;;;27.25;42.06;99421.33;105990;1255;70526;-77
2023/07/11 11:12:42;;;;;;;3.00;2.70;;;;;;;27.83;41.77;99414.50;106352;1253;72604;-80
2023/07/11 11:15:18;;;;;;;3.80;2.80;;;;;;;28.84;40.64;99411.88;108182;1254;59168;-76
2023/07/11 11:17:48;;;;;;;3.00;2.80;;;;;;;29.54;39.45;99407.77;108774;1254;59046;-77
2023/07/11 11:20:17;;;;;;;3.00;2.50;;;;;;;30.06;38.55;99393.45;107137;1254;72590;-74
2023/07/11 11:23:24;;;;;;;2.90;2.60;;;;;;;30.54;37.95;99393.77;106175;1261;68831;-77
2023/07/11 11:26:22;;;;;;;2.50;2.30;;;;;;;31.01;37.48;99394.45;106245;1254;72751;-78
2023/07/11 11:29:35;;;;;;;2.60;2.40;;;;;;;31.20;37.06;99394.21;106657;1256;60403;-76
2023/07/11 11:32:08;;;;;;;2.80;2.60;;;;;;;31.03;36.64;99391.05;106460;1259;60515;-78
2023/07/11 11:34:40;;;;;;;2.70;2.50;;;;;;;30.59;36.94;99390.27;106658;1254;72548;-80
2023/07/11 11:37:22;;;;;;;4.00;2.70;;;;;;;30.14;37.48;99395.21;106304;1257;70149;-79
2023/07/11 11:40:03;;;;;;;4.20;2.70;;;;;;;29.84;37.73;99398.83;106207;1259;72547;-77
2023/07/11 11:42:32;;;;;;;3.00;2.70;;;;;;;29.66;38.21;99402.28;106237;1254;61022;-78
2023/07/11 11:45:01;;;;;;;4.30;2.80;;;;;;;29.71;38.42;99400.31;108359;1254;60387;-76